createdAt,value
2023-03-22T00:02:13.784Z,86.78
2023-03-22T00:04:42.478Z,86.84
2023-03-22T00:07:08.875Z,87.23
2023-03-22T00:09:36.427Z,87.26
2023-03-22T00:12:02.842Z,87.04
2023-03-22T00:14:29.190Z,87.52
2023-03-22T00:16:55.536Z,86.96
2023-03-22T00:19:21.897Z,87.08
2023-03-22T00:21:48.261Z,87.16
2023-03-22T00:24:14.599Z,87.74
2023-03-22T00:26:40.987Z,86.95
2023-03-22T00:29:07.360Z,87.51
2023-03-22T00:31:34.864Z,87.58
2023-03-22T00:34:01.258Z,87.43
2023-03-22T00:36:27.642Z,87.55
2023-03-22T00:38:54.016Z,87.58
2023-03-22T00:41:22.967Z,87.70
2023-03-22T00:43:53.411Z,88.01
2023-03-22T00:46:22.077Z,87.79
2023-03-22T00:48:49.325Z,87.72
2023-03-22T00:51:16.701Z,87.88
2023-03-22T00:53:43.962Z,88.17
2023-03-22T00:56:14.039Z,88.05
2023-03-22T00:58:40.891Z,87.93
2023-03-22T01:01:07.479Z,88.10
2023-03-22T01:03:34.946Z,87.83
2023-03-22T01:06:01.540Z,87.97
2023-03-22T01:08:33.152Z,87.91
2023-03-22T01:11:01.195Z,88.35
2023-03-22T01:13:27.866Z,87.71
2023-03-22T01:15:54.228Z,87.92
2023-03-22T01:18:20.709Z,87.92
2023-03-22T01:20:47.150Z,87.98
2023-03-22T01:23:13.597Z,87.74
2023-03-22T01:25:39.958Z,87.79
2023-03-22T01:28:07.683Z,87.98
2023-03-22T01:30:34.507Z,87.59
2023-03-22T01:33:00.915Z,88.20
2023-03-22T01:35:27.301Z,88.48
2023-03-22T01:37:53.674Z,88.23
2023-03-22T01:40:23.467Z,87.61
2023-03-22T01:42:49.834Z,87.59
2023-03-22T01:45:19.032Z,87.70
2023-03-22T01:47:51.092Z,87.57
2023-03-22T01:50:18.333Z,87.90
2023-03-22T01:52:48.459Z,87.65
2023-03-22T01:55:18.152Z,87.82
2023-03-22T01:57:45.599Z,87.85
2023-03-22T02:00:15.555Z,87.46
2023-03-22T02:02:43.771Z,88.03
2023-03-22T02:05:10.291Z,87.43
2023-03-22T02:07:38.326Z,87.71
2023-03-22T02:10:14.961Z,87.76
2023-03-22T02:13:18.631Z,87.99
2023-03-22T02:16:00.246Z,87.16
2023-03-22T02:18:38.805Z,87.05
2023-03-22T02:21:17.384Z,87.56
2023-03-22T02:24:19.633Z,87.80
2023-03-22T02:27:06.526Z,87.88
2023-03-22T02:29:53.017Z,87.37
2023-03-22T02:33:05.430Z,88.14
2023-03-22T02:36:07.658Z,88.32
2023-03-22T02:38:57.660Z,88.18
2023-03-22T02:41:39.162Z,88.63
2023-03-22T02:44:23.854Z,88.36
2023-03-22T02:47:04.739Z,88.45
2023-03-22T02:49:41.399Z,88.83
2023-03-22T02:52:19.370Z,89.25
2023-03-22T02:55:05.573Z,89.70
2023-03-22T02:57:41.855Z,89.76
2023-03-22T03:00:16.126Z,89.60
2023-03-22T03:02:48.839Z,89.62
2023-03-22T03:05:17.646Z,89.91
2023-03-22T03:07:48.928Z,90.00
2023-03-22T03:10:17.463Z,90.38
2023-03-22T03:12:43.927Z,90.46
2023-03-22T03:15:19.383Z,90.62
2023-03-22T03:18:04.447Z,91.17
2023-03-22T03:20:46.593Z,90.70
2023-03-22T03:23:25.357Z,91.32
2023-03-22T03:26:05.808Z,90.91
2023-03-22T03:28:49.674Z,90.92
2023-03-22T03:31:31.471Z,90.99
2023-03-22T03:34:23.166Z,91.36
2023-03-22T03:37:01.868Z,91.36
2023-03-22T03:39:33.744Z,91.59
2023-03-22T03:42:02.438Z,91.30
2023-03-22T03:44:31.274Z,91.88
2023-03-22T03:46:57.911Z,92.24
2023-03-22T03:49:24.555Z,91.90
2023-03-22T03:51:55.654Z,91.95
2023-03-22T03:54:23.141Z,92.84
2023-03-22T03:56:49.595Z,92.37
2023-03-22T03:59:17.826Z,92.23
2023-03-22T04:01:51.678Z,92.02
2023-03-22T04:04:27.423Z,92.37
2023-03-22T04:06:56.886Z,92.30
2023-03-22T04:09:26.863Z,91.94
2023-03-22T04:11:54.494Z,92.54
2023-03-22T04:14:21.538Z,91.96
2023-03-22T04:16:48.194Z,92.09
2023-03-22T04:19:14.749Z,92.13
2023-03-22T04:21:45.878Z,92.12
2023-03-22T04:24:12.796Z,91.95
2023-03-22T04:26:40.846Z,92.06
2023-03-22T04:29:07.545Z,92.00
2023-03-22T04:31:35.662Z,91.93
2023-03-22T04:34:05.506Z,91.89
2023-03-22T04:36:39.422Z,92.20
2023-03-22T04:39:12.171Z,91.70
2023-03-22T04:41:38.596Z,91.84
2023-03-22T04:44:06.129Z,91.84
2023-03-22T04:46:38.595Z,91.73
2023-03-22T04:49:05.712Z,91.90
2023-03-22T04:51:33.195Z,92.06
2023-03-22T04:54:00.264Z,92.02
2023-03-22T04:56:26.768Z,91.67
2023-03-22T04:58:53.183Z,92.12
2023-03-22T05:01:19.607Z,91.98
2023-03-22T05:03:47.375Z,91.41
2023-03-22T05:06:14.568Z,91.47
2023-03-22T05:08:42.116Z,91.40
2023-03-22T05:11:12.325Z,91.69
2023-03-22T05:13:40.668Z,91.76
2023-03-22T05:16:08.149Z,91.69
2023-03-22T05:18:42.465Z,91.88
2023-03-22T05:21:21.999Z,91.47
2023-03-22T05:23:51.486Z,91.34
2023-03-22T05:26:20.329Z,91.26
2023-03-22T05:28:46.931Z,91.41
2023-03-22T05:31:14.707Z,90.66
2023-03-22T05:33:41.689Z,90.84
2023-03-22T05:36:09.132Z,91.07
2023-03-22T05:38:35.510Z,91.04
2023-03-22T05:41:01.944Z,91.46
2023-03-22T05:43:28.344Z,91.09
2023-03-22T05:45:54.813Z,91.03
2023-03-22T05:48:29.469Z,90.79
2023-03-22T05:50:55.991Z,90.92
2023-03-22T05:53:22.330Z,90.88
2023-03-22T05:55:48.690Z,91.32
2023-03-22T05:58:19.040Z,90.69
2023-03-22T06:00:49.497Z,90.87
2023-03-22T06:03:17.048Z,90.80
2023-03-22T06:05:43.727Z,91.34
2023-03-22T06:08:11.008Z,90.65
2023-03-22T06:10:37.370Z,90.55
2023-03-22T06:13:03.900Z,90.51
2023-03-22T06:15:30.491Z,90.62
2023-03-22T06:17:56.879Z,90.99
2023-03-22T06:20:23.369Z,90.47
2023-03-22T06:22:49.726Z,90.71
2023-03-22T06:25:16.323Z,90.69
2023-03-22T06:27:42.699Z,90.82
2023-03-22T06:30:09.510Z,90.54
2023-03-22T06:32:36.995Z,90.59
2023-03-22T06:35:03.516Z,90.47
2023-03-22T06:37:29.887Z,90.69
2023-03-22T06:39:58.276Z,90.39
2023-03-22T06:42:26.007Z,89.92
2023-03-22T06:44:52.366Z,89.21
2023-03-22T06:47:18.726Z,90.13
2023-03-22T06:49:45.214Z,88.98
2023-03-22T06:52:11.611Z,89.18
2023-03-22T06:54:37.959Z,88.83
2023-03-22T06:57:04.424Z,88.97
2023-03-22T06:59:31.796Z,88.90
2023-03-22T07:01:58.235Z,88.82
2023-03-22T07:04:25.681Z,88.19
2023-03-22T07:06:53.176Z,88.67
2023-03-22T07:09:19.842Z,87.91
2023-03-22T07:11:46.196Z,87.75
2023-03-22T07:14:12.626Z,87.79
2023-03-22T07:16:38.982Z,88.24
2023-03-22T07:19:05.414Z,88.23
2023-03-22T07:21:31.786Z,87.63
2023-03-22T07:23:58.338Z,87.27
2023-03-22T07:26:26.220Z,87.01
2023-03-22T07:28:53.076Z,87.32
2023-03-22T07:31:19.619Z,86.99
2023-03-22T07:33:46.066Z,87.12
2023-03-22T07:36:12.895Z,87.35
2023-03-22T07:38:39.281Z,86.39
2023-03-22T07:41:06.167Z,86.20
2023-03-22T07:43:37.119Z,86.48
2023-03-22T07:46:07.875Z,86.34
2023-03-22T07:48:36.440Z,86.04
2023-03-22T07:51:02.990Z,86.22
2023-03-22T07:53:31.373Z,85.75
2023-03-22T07:56:04.790Z,85.84
2023-03-22T07:58:31.422Z,85.65
2023-03-22T08:00:58.524Z,85.49
2023-03-22T08:03:25.403Z,85.06
2023-03-22T08:05:51.915Z,85.15
2023-03-22T08:08:18.352Z,85.28
2023-03-22T08:10:49.411Z,85.08
2023-03-22T08:13:15.814Z,84.22
2023-03-22T08:15:43.219Z,84.40
2023-03-22T08:18:09.574Z,83.43
2023-03-22T08:20:38.289Z,83.35
2023-03-22T08:23:05.544Z,83.48
2023-03-22T08:25:34.111Z,83.05
2023-03-22T08:28:09.716Z,83.14
2023-03-22T08:30:36.492Z,82.97
2023-03-22T08:33:06.430Z,82.76
2023-03-22T08:35:32.806Z,82.38
2023-03-22T08:38:01.282Z,83.91
2023-03-22T08:40:28.773Z,83.20
2023-03-22T08:42:55.360Z,83.55
2023-03-22T08:45:21.762Z,83.28
2023-03-22T08:47:48.267Z,83.32
2023-03-22T08:50:14.811Z,83.14
2023-03-22T08:52:45.387Z,82.36
2023-03-22T08:55:11.764Z,82.00
2023-03-22T08:57:50.174Z,81.92
2023-03-22T09:00:17.921Z,81.81
2023-03-22T09:02:44.526Z,81.19
2023-03-22T09:05:11.210Z,80.75
2023-03-22T09:07:37.578Z,81.41
2023-03-22T09:10:05.598Z,81.11
2023-03-22T09:12:32.104Z,81.00
2023-03-22T09:14:58.458Z,81.31
2023-03-22T09:17:25.031Z,81.19
2023-03-22T09:20:09.424Z,81.05
2023-03-22T09:22:38.466Z,81.87
2023-03-22T09:25:05.165Z,81.90
2023-03-22T09:27:31.508Z,81.37
2023-03-22T09:29:57.967Z,81.15
2023-03-22T09:32:24.505Z,81.81
2023-03-22T09:34:51.024Z,82.00
2023-03-22T09:37:18.900Z,82.30
2023-03-22T09:39:45.279Z,82.52
2023-03-22T09:42:28.041Z,83.03
2023-03-22T09:44:57.579Z,83.04
2023-03-22T09:47:44.469Z,83.07
2023-03-22T09:50:28.011Z,83.94
2023-03-22T09:52:55.984Z,84.84
2023-03-22T09:55:40.287Z,85.81
2023-03-22T09:58:22.311Z,85.54
2023-03-22T10:00:56.805Z,86.38
2023-03-22T10:03:48.029Z,87.46
2023-03-22T10:06:23.140Z,87.07
2023-03-22T10:09:11.010Z,86.99
2023-03-22T10:11:46.128Z,87.92
2023-03-22T10:14:26.837Z,87.76
2023-03-22T10:16:56.628Z,88.59
2023-03-22T10:19:30.022Z,88.59
2023-03-22T10:21:59.879Z,88.97
2023-03-22T10:24:38.557Z,89.31
2023-03-22T10:27:15.751Z,89.22
2023-03-22T10:29:55.798Z,89.81
2023-03-22T10:32:57.603Z,89.56
2023-03-22T10:35:25.356Z,89.58
2023-03-22T10:37:54.117Z,90.46
2023-03-22T10:40:30.833Z,90.59
2023-03-22T10:43:03.554Z,90.72
2023-03-22T10:45:34.540Z,91.14
2023-03-22T10:48:33.161Z,90.70
2023-03-22T10:51:01.313Z,90.99
2023-03-22T10:53:42.369Z,91.16
2023-03-22T10:56:13.884Z,91.13
2023-03-22T10:58:40.404Z,91.42
2023-03-22T11:01:33.727Z,91.20
2023-03-22T11:04:03.170Z,91.50
2023-03-22T11:06:36.937Z,90.94
2023-03-22T11:09:24.077Z,91.05
2023-03-22T11:11:54.257Z,91.09
2023-03-22T11:14:29.382Z,91.16
2023-03-22T11:17:19.706Z,91.65
2023-03-22T11:19:51.971Z,91.26
2023-03-22T11:22:31.454Z,91.06
2023-03-22T11:24:58.502Z,91.44
2023-03-22T11:27:31.283Z,91.28
2023-03-22T11:30:07.596Z,91.18
2023-03-22T11:32:38.977Z,91.04
2023-03-22T11:35:23.045Z,90.85
2023-03-22T11:37:55.299Z,91.20
2023-03-22T11:40:27.873Z,90.94
2023-03-22T11:42:57.923Z,90.67
2023-03-22T11:45:31.604Z,90.35
2023-03-22T11:48:05.039Z,90.20
2023-03-22T11:50:34.721Z,90.46
2023-03-22T11:53:03.279Z,90.38
2023-03-22T11:55:31.830Z,89.89
2023-03-22T11:57:58.486Z,90.33
2023-03-22T12:00:29.477Z,89.67
2023-03-22T12:03:17.787Z,89.86
2023-03-22T12:05:49.736Z,89.75
2023-03-22T12:08:21.613Z,89.87
2023-03-22T12:10:53.792Z,89.43
2023-03-22T12:13:48.981Z,89.55
2023-03-22T12:16:25.002Z,90.07
2023-03-22T12:19:06.883Z,89.83
2023-03-22T12:21:34.749Z,89.86
2023-03-22T12:24:03.281Z,89.48
2023-03-22T12:26:31.165Z,89.45
2023-03-22T12:29:03.642Z,88.97
2023-03-22T12:31:59.514Z,88.95
2023-03-22T12:34:40.829Z,88.81
2023-03-22T12:37:13.874Z,88.83
2023-03-22T12:39:51.252Z,89.00
2023-03-22T12:42:40.465Z,88.81
2023-03-22T12:45:22.542Z,89.08
2023-03-22T12:48:01.045Z,89.10
2023-03-22T12:50:43.656Z,88.70
2023-03-22T12:53:15.545Z,88.52
2023-03-22T12:55:52.886Z,88.62
2023-03-22T12:58:23.060Z,88.52
2023-03-22T13:01:01.169Z,87.94
2023-03-22T13:03:51.994Z,87.90
2023-03-22T13:06:46.347Z,88.52
2023-03-22T13:09:17.427Z,88.32
2023-03-22T13:11:46.649Z,88.08
2023-03-22T13:14:51.257Z,87.93
2023-03-22T13:17:23.553Z,88.63
2023-03-22T13:20:00.205Z,88.65
2023-03-22T13:22:28.297Z,88.92
2023-03-22T13:25:13.153Z,88.20
2023-03-22T13:27:45.621Z,88.02
2023-03-22T13:30:23.113Z,88.46
2023-03-22T13:32:56.170Z,88.14
2023-03-22T13:35:33.845Z,88.20
2023-03-22T13:38:09.563Z,88.50
2023-03-22T13:40:43.582Z,87.77
2023-03-22T13:46:53.312Z,89.02
2023-03-22T13:49:45.263Z,88.58
2023-03-22T13:52:25.641Z,89.12
2023-03-22T13:54:55.986Z,89.51
2023-03-22T13:57:47.831Z,89.76
2023-03-22T14:00:34.264Z,89.78
2023-03-22T14:03:11.682Z,90.13
2023-03-22T14:05:39.114Z,90.22
2023-03-22T14:08:29.227Z,90.30
2023-03-22T14:11:02.655Z,91.07
2023-03-22T14:13:42.332Z,90.79
2023-03-22T14:16:37.323Z,90.78
2023-03-22T14:19:34.294Z,91.11
